createdAt,value
2019-01-12T00:00:31.528Z,2.17
2019-01-12T00:01:14.042Z,1.33
2019-01-12T00:01:51.165Z,1.80
2019-01-12T00:02:28.281Z,1.50
2019-01-12T00:03:05.402Z,1.80
2019-01-12T00:03:42.050Z,1.87
2019-01-12T00:04:18.305Z,1.80
2019-01-12T00:04:55.026Z,2.00
2019-01-12T00:05:31.609Z,3.63
2019-01-12T00:06:08.683Z,2.03
2019-01-12T00:06:45.688Z,1.40
2019-01-12T00:07:22.027Z,2.10
2019-01-12T00:07:58.567Z,1.50
2019-01-12T00:08:35.741Z,1.40
2019-01-12T00:09:12.495Z,1.83
2019-01-12T00:09:49.575Z,1.47
2019-01-12T00:10:25.802Z,1.70
2019-01-12T00:11:01.939Z,1.60
2019-01-12T00:11:39.035Z,2.03
2019-01-12T00:12:16.149Z,1.90
2019-01-12T00:12:52.471Z,2.13
2019-01-12T00:13:28.835Z,1.30
2019-01-12T00:14:05.796Z,1.87
2019-01-12T00:14:42.230Z,2.10
2019-01-12T00:15:19.006Z,1.50
2019-01-12T00:15:56.078Z,1.40
2019-01-12T00:16:33.092Z,1.87
2019-01-12T00:17:10.028Z,1.77
2019-01-12T00:17:46.587Z,1.73
2019-01-12T00:18:23.004Z,1.70
2019-01-12T00:18:59.825Z,1.83
2019-01-12T00:19:36.602Z,1.83
2019-01-12T00:20:12.972Z,1.97
2019-01-12T00:20:52.548Z,1.50
2019-01-12T00:21:29.460Z,1.70
2019-01-12T00:22:05.928Z,1.37
2019-01-12T00:22:42.316Z,1.80
2019-01-12T00:23:19.307Z,1.37
2019-01-12T00:23:56.411Z,1.70
2019-01-12T00:24:32.949Z,1.80
2019-01-12T00:25:09.742Z,1.37
2019-01-12T00:25:46.706Z,1.40
2019-01-12T00:26:23.666Z,1.23
2019-01-12T00:26:59.960Z,1.73
2019-01-12T00:27:37.007Z,1.77
2019-01-12T00:28:13.305Z,1.33
2019-01-12T00:28:49.493Z,1.87
2019-01-12T00:29:26.430Z,1.27
2019-01-12T00:30:02.826Z,1.53
2019-01-12T00:30:39.089Z,1.67
2019-01-12T00:31:15.889Z,0.80
2019-01-12T00:31:52.621Z,1.70
2019-01-12T00:32:29.403Z,1.70
2019-01-12T00:33:06.402Z,1.93
2019-01-12T00:33:43.258Z,1.60
2019-01-12T00:34:20.187Z,1.07
2019-01-12T00:34:57.156Z,1.30
2019-01-12T00:35:34.123Z,1.47
2019-01-12T00:36:10.918Z,1.73
2019-01-12T00:36:47.133Z,1.53
2019-01-12T00:37:23.564Z,1.10
2019-01-12T00:38:02.071Z,1.43
2019-01-12T00:38:39.124Z,1.50
2019-01-12T00:39:15.560Z,1.60
2019-01-12T00:39:51.966Z,1.60
2019-01-12T00:40:28.307Z,1.80
2019-01-12T00:41:04.501Z,1.97
2019-01-12T00:41:41.543Z,1.83
2019-01-12T00:42:18.505Z,1.57
2019-01-12T00:42:54.835Z,1.50
2019-01-12T00:43:31.946Z,1.70
2019-01-12T00:44:08.715Z,1.40
2019-01-12T00:44:45.061Z,1.80
2019-01-12T00:45:21.386Z,1.70
2019-01-12T00:45:59.991Z,2.20
2019-01-12T00:46:36.235Z,1.57
2019-01-12T00:47:13.346Z,2.10
2019-01-12T00:47:50.240Z,1.40
2019-01-12T00:48:26.637Z,1.63
2019-01-12T00:49:03.382Z,1.60
2019-01-12T00:49:39.726Z,2.00
2019-01-12T00:50:17.137Z,1.50
2019-01-12T00:50:54.060Z,1.60
2019-01-12T00:51:30.903Z,1.20
2019-01-12T00:52:08.916Z,1.63
2019-01-12T00:52:45.273Z,1.47
2019-01-12T00:53:22.250Z,1.20
2019-01-12T00:53:58.639Z,1.53
2019-01-12T00:54:38.662Z,1.27
2019-01-12T00:55:14.363Z,1.60
2019-01-12T00:55:50.764Z,1.90
2019-01-12T00:56:27.089Z,1.70
2019-01-12T00:57:03.858Z,1.77
2019-01-12T00:57:40.943Z,2.47
2019-01-12T00:58:17.118Z,1.50
2019-01-12T00:58:53.527Z,1.77
2019-01-12T00:59:30.214Z,1.17
2019-01-12T01:00:09.134Z,1.20
2019-01-12T01:00:46.290Z,1.40
2019-01-12T01:01:23.456Z,1.33
2019-01-12T01:02:00.512Z,2.00
2019-01-12T01:02:36.945Z,1.40
2019-01-12T01:03:13.777Z,1.37
2019-01-12T01:03:50.129Z,1.43
2019-01-12T01:04:26.912Z,1.50
2019-01-12T01:05:03.571Z,1.17
2019-01-12T01:05:40.481Z,1.43
2019-01-12T01:06:16.766Z,1.20
2019-01-12T01:06:53.651Z,1.57
2019-01-12T01:07:30.904Z,1.50
2019-01-12T01:08:07.266Z,1.47
2019-01-12T01:08:43.686Z,1.27
2019-01-12T01:09:20.895Z,2.10
2019-01-12T01:09:57.250Z,1.13
2019-01-12T01:10:34.226Z,1.77
2019-01-12T01:11:11.313Z,1.57
2019-01-12T01:11:48.164Z,1.50
2019-01-12T01:12:24.486Z,1.27
2019-01-12T01:13:00.818Z,1.37
2019-01-12T01:13:37.142Z,1.53
2019-01-12T01:14:14.136Z,1.50
2019-01-12T01:14:51.398Z,1.37
2019-01-12T01:15:28.158Z,1.57
2019-01-12T01:16:04.859Z,1.47
2019-01-12T01:16:41.257Z,1.47
2019-01-12T01:17:17.493Z,1.40
2019-01-12T01:17:54.340Z,1.10
2019-01-12T01:18:31.405Z,1.47
2019-01-12T01:19:08.037Z,1.70
2019-01-12T01:19:44.991Z,1.10
2019-01-12T01:20:22.212Z,2.80
2019-01-12T01:20:58.580Z,1.67
2019-01-12T01:21:34.974Z,1.40
2019-01-12T01:22:11.316Z,1.17
2019-01-12T01:22:47.524Z,1.63
2019-01-12T01:23:24.508Z,1.70
2019-01-12T01:24:00.674Z,1.87
2019-01-12T01:24:38.040Z,1.80
2019-01-12T01:25:15.155Z,1.57
2019-01-12T01:25:51.468Z,1.73
2019-01-12T01:26:28.264Z,1.30
2019-01-12T01:27:05.164Z,1.43
2019-01-12T01:27:42.267Z,1.30
2019-01-12T01:28:19.158Z,2.17
2019-01-12T01:28:55.859Z,1.73
2019-01-12T01:29:32.861Z,2.10
2019-01-12T01:30:15.814Z,1.60
2019-01-12T01:30:52.722Z,1.20
2019-01-12T01:31:29.457Z,1.90
2019-01-12T01:32:05.787Z,2.47
2019-01-12T01:32:42.991Z,1.40
2019-01-12T01:33:19.326Z,1.60
2019-01-12T01:33:56.007Z,1.60
2019-01-12T01:34:38.326Z,1.70
2019-01-12T01:35:15.386Z,1.20
2019-01-12T01:35:53.060Z,1.77
2019-01-12T01:36:29.298Z,1.70
2019-01-12T01:37:06.386Z,2.03
2019-01-12T01:37:44.578Z,2.20
2019-01-12T01:38:21.753Z,2.00
2019-01-12T01:38:57.982Z,1.80
2019-01-12T01:39:35.111Z,1.80
2019-01-12T01:40:14.009Z,1.60
2019-01-12T01:40:51.190Z,1.57
2019-01-12T01:41:28.186Z,1.97
2019-01-12T01:42:05.287Z,1.77
2019-01-12T01:42:41.654Z,1.30
2019-01-12T01:43:18.095Z,2.40
2019-01-12T01:43:55.196Z,1.80
2019-01-12T01:44:32.297Z,1.83
2019-01-12T01:45:09.419Z,1.63
2019-01-12T01:45:46.642Z,2.00
2019-01-12T01:46:22.843Z,1.30
2019-01-12T01:47:00.166Z,1.80
2019-01-12T01:47:37.048Z,1.93
2019-01-12T01:48:13.355Z,1.90
2019-01-12T01:48:49.568Z,1.87
2019-01-12T01:49:26.562Z,2.00
2019-01-12T01:50:02.738Z,1.80
2019-01-12T01:50:39.109Z,1.87
2019-01-12T01:51:15.651Z,2.00
2019-01-12T01:51:55.470Z,1.70
2019-01-12T01:52:32.087Z,2.00
2019-01-12T01:53:08.701Z,2.70
2019-01-12T01:53:45.719Z,2.40
2019-01-12T01:54:23.136Z,2.30
2019-01-12T01:54:59.593Z,1.20
2019-01-12T01:55:35.900Z,1.43
2019-01-12T01:56:12.342Z,1.60
2019-01-12T01:56:48.915Z,1.87
2019-01-12T01:57:26.171Z,2.47
2019-01-12T01:58:03.208Z,1.97
2019-01-12T01:58:39.659Z,2.10
2019-01-12T01:59:16.802Z,2.67
2019-01-12T01:59:53.891Z,2.23
2019-01-12T02:00:30.118Z,2.47
2019-01-12T02:01:06.495Z,2.10
2019-01-12T02:01:43.533Z,2.53
2019-01-12T02:02:19.790Z,3.00
2019-01-12T02:02:56.797Z,2.00
2019-01-12T02:03:33.762Z,2.07
2019-01-12T02:04:09.993Z,2.20
2019-01-12T02:04:47.075Z,1.83
2019-01-12T02:05:24.084Z,2.23
2019-01-12T02:06:01.460Z,2.30
2019-01-12T02:06:38.476Z,2.50
2019-01-12T02:07:15.420Z,2.10
2019-01-12T02:07:51.797Z,2.63
2019-01-12T02:08:28.622Z,1.80
2019-01-12T02:09:07.722Z,2.20
2019-01-12T02:09:44.872Z,2.30
2019-01-12T02:10:23.195Z,2.33
2019-01-12T02:10:59.683Z,2.77
2019-01-12T02:11:36.406Z,2.53
2019-01-12T02:12:13.074Z,2.20
2019-01-12T02:12:49.849Z,2.10
2019-01-12T02:13:27.009Z,2.50
2019-01-12T02:14:03.363Z,2.70
2019-01-12T02:14:39.682Z,2.70
2019-01-12T02:15:16.561Z,2.13
2019-01-12T02:15:52.778Z,3.00
2019-01-12T02:16:29.547Z,2.60
2019-01-12T02:17:05.940Z,2.40
2019-01-12T02:17:42.829Z,2.50
2019-01-12T02:18:19.505Z,3.20
2019-01-12T02:18:55.691Z,3.23
2019-01-12T02:19:32.071Z,2.97
2019-01-12T02:20:09.096Z,2.33
2019-01-12T02:20:45.871Z,2.30
2019-01-12T02:21:22.242Z,2.80
2019-01-12T02:21:59.340Z,2.93
2019-01-12T02:22:36.303Z,2.33
2019-01-12T02:23:13.241Z,2.97
2019-01-12T02:23:49.599Z,2.70
2019-01-12T02:24:25.857Z,2.90
2019-01-12T02:25:02.201Z,2.60
2019-01-12T02:25:39.174Z,3.33
2019-01-12T02:26:16.272Z,2.50
2019-01-12T02:26:52.528Z,2.80
2019-01-12T02:27:29.636Z,3.50
2019-01-12T02:28:06.105Z,2.30
2019-01-12T02:28:42.390Z,2.53
2019-01-12T02:29:19.959Z,2.87
2019-01-12T02:29:57.181Z,3.00
2019-01-12T02:30:33.317Z,2.87
2019-01-12T02:31:10.307Z,2.97
2019-01-12T02:31:46.640Z,2.90
2019-01-12T02:32:22.929Z,2.80
2019-01-12T02:33:00.211Z,2.57
2019-01-12T02:33:36.451Z,2.90
2019-01-12T02:34:12.812Z,2.90
2019-01-12T02:34:49.842Z,2.17
2019-01-12T02:35:27.870Z,2.67
2019-01-12T02:36:04.994Z,2.73
2019-01-12T02:36:41.879Z,2.13
2019-01-12T02:37:18.816Z,3.00
2019-01-12T02:37:55.190Z,3.00
2019-01-12T02:38:31.980Z,2.80
2019-01-12T02:39:09.822Z,3.53
2019-01-12T02:39:46.790Z,3.10
2019-01-12T02:40:23.625Z,2.50
2019-01-12T02:40:59.927Z,2.73
2019-01-12T02:41:36.343Z,3.30
2019-01-12T02:42:12.748Z,3.40
2019-01-12T02:42:49.699Z,2.60
2019-01-12T02:43:26.551Z,3.53
2019-01-12T02:44:02.978Z,3.10
2019-01-12T02:44:40.180Z,3.07
2019-01-12T02:45:17.354Z,2.60
2019-01-12T02:45:55.334Z,3.20
2019-01-12T02:46:31.663Z,4.00
2019-01-12T02:47:08.673Z,2.53
2019-01-12T02:47:45.461Z,2.90
2019-01-12T02:48:22.219Z,2.30
2019-01-12T02:48:59.675Z,3.27
2019-01-12T02:49:37.516Z,3.03
2019-01-12T02:50:14.192Z,2.80
2019-01-12T02:50:50.492Z,2.70
2019-01-12T02:51:26.813Z,3.10
2019-01-12T02:52:03.304Z,3.50
2019-01-12T02:52:39.472Z,2.80
2019-01-12T02:53:15.859Z,3.10
2019-01-12T02:53:52.754Z,3.03
2019-01-12T02:54:29.806Z,2.90
2019-01-12T02:55:08.943Z,2.73
2019-01-12T02:55:44.460Z,2.80
2019-01-12T02:56:21.191Z,3.47
2019-01-12T02:56:57.850Z,3.70
2019-01-12T02:57:34.568Z,3.77
2019-01-12T02:58:11.517Z,4.30
2019-01-12T02:58:48.106Z,3.20
2019-01-12T02:59:24.721Z,2.67
2019-01-12T03:00:00.972Z,3.20
2019-01-12T03:00:37.599Z,3.33
2019-01-12T03:01:13.822Z,2.80
2019-01-12T03:01:51.023Z,2.70
2019-01-12T03:02:27.324Z,2.77
2019-01-12T03:03:03.487Z,2.97
2019-01-12T03:03:41.411Z,3.30
2019-01-12T03:04:17.572Z,2.73
2019-01-12T03:04:54.052Z,2.53
2019-01-12T03:05:31.187Z,3.20
2019-01-12T03:06:07.905Z,2.83
2019-01-12T03:06:44.694Z,2.77
2019-01-12T03:07:21.557Z,3.27
2019-01-12T03:07:58.328Z,2.80
2019-01-12T03:08:34.694Z,2.80
2019-01-12T03:09:11.535Z,3.40
2019-01-12T03:09:48.262Z,3.40
2019-01-12T03:10:24.702Z,2.87
2019-01-12T03:11:01.908Z,3.43
2019-01-12T03:11:39.273Z,2.80
2019-01-12T03:12:15.588Z,3.07
2019-01-12T03:12:52.894Z,2.67
2019-01-12T03:13:29.233Z,4.20
2019-01-12T03:14:05.986Z,3.53
2019-01-12T03:14:42.741Z,3.30
2019-01-12T03:15:20.781Z,2.90
2019-01-12T03:15:57.887Z,2.73
2019-01-12T03:16:34.715Z,3.43
2019-01-12T03:17:11.136Z,3.73
2019-01-12T03:17:47.953Z,2.97
2019-01-12T03:18:24.350Z,3.60
2019-01-12T03:19:01.317Z,2.67
2019-01-12T03:19:37.658Z,2.20
2019-01-12T03:20:15.894Z,3.00
2019-01-12T03:20:52.926Z,2.90
2019-01-12T03:21:29.264Z,3.00
2019-01-12T03:22:05.639Z,3.53
2019-01-12T03:22:42.674Z,3.00
2019-01-12T03:23:18.998Z,3.10
2019-01-12T03:23:55.290Z,2.87
2019-01-12T03:24:32.166Z,3.50
2019-01-12T03:25:17.172Z,3.97
2019-01-12T03:25:47.363Z,3.20
2019-01-12T03:26:24.429Z,2.37
2019-01-12T03:27:01.564Z,3.67
2019-01-12T03:27:38.956Z,3.10
2019-01-12T03:28:15.912Z,3.70
2019-01-12T03:28:52.798Z,3.13
2019-01-12T03:29:28.943Z,2.40
2019-01-12T03:30:05.889Z,3.50
2019-01-12T03:30:43.071Z,3.40
2019-01-12T03:31:20.396Z,3.13
2019-01-12T03:31:58.226Z,2.93
2019-01-12T03:32:35.178Z,2.93
2019-01-12T03:33:11.354Z,2.30
2019-01-12T03:33:47.691Z,3.00
2019-01-12T03:34:24.700Z,3.70
2019-01-12T03:35:01.971Z,3.70
2019-01-12T03:35:38.262Z,2.90
2019-01-12T03:36:15.133Z,3.50
2019-01-12T03:36:52.243Z,2.90
2019-01-12T03:37:28.608Z,3.00
2019-01-12T03:38:05.659Z,3.33
2019-01-12T03:38:42.670Z,3.10
2019-01-12T03:39:19.567Z,2.87
2019-01-12T03:39:56.623Z,2.20
2019-01-12T03:40:32.954Z,3.40
2019-01-12T03:41:09.295Z,3.20
2019-01-12T03:41:45.483Z,3.43
2019-01-12T03:42:21.729Z,3.50
2019-01-12T03:42:58.180Z,2.93
2019-01-12T03:43:35.161Z,2.97
2019-01-12T03:44:12.184Z,3.27
2019-01-12T03:44:48.436Z,2.70
2019-01-12T03:45:25.357Z,2.57
2019-01-12T03:46:03.047Z,2.60
2019-01-12T03:46:39.450Z,3.43
2019-01-12T03:47:16.385Z,2.90
2019-01-12T03:47:52.897Z,3.03
2019-01-12T03:48:29.305Z,3.10
2019-01-12T03:49:06.115Z,3.17
2019-01-12T03:49:43.398Z,3.90
2019-01-12T03:50:20.300Z,3.23
2019-01-12T03:50:56.499Z,2.77
2019-01-12T03:51:32.818Z,3.83
2019-01-12T03:52:11.716Z,4.33
2019-01-12T03:52:48.245Z,3.13
2019-01-12T03:53:24.772Z,3.20
2019-01-12T03:54:01.487Z,3.83
2019-01-12T03:54:38.029Z,2.80
2019-01-12T03:55:14.497Z,3.90
2019-01-12T03:55:51.289Z,3.67
2019-01-12T03:56:27.811Z,3.40
2019-01-12T03:57:05.074Z,2.90
2019-01-12T03:57:41.573Z,2.70
2019-01-12T03:58:18.339Z,3.10
2019-01-12T03:58:55.220Z,3.40
2019-01-12T03:59:31.846Z,3.13
2019-01-12T04:00:12.246Z,3.17
2019-01-12T04:00:49.084Z,3.03
2019-01-12T04:01:25.405Z,4.10
2019-01-12T04:02:02.415Z,4.17
2019-01-12T04:02:39.239Z,4.03
2019-01-12T04:03:16.306Z,3.47
2019-01-12T04:03:53.663Z,3.27
2019-01-12T04:04:30.012Z,2.70
2019-01-12T04:05:06.472Z,3.53
2019-01-12T04:05:43.517Z,3.37
2019-01-12T04:06:19.915Z,3.60
2019-01-12T04:06:56.704Z,3.00
2019-01-12T04:07:33.102Z,4.00
2019-01-12T04:08:09.364Z,3.83
2019-01-12T04:08:46.231Z,3.37
2019-01-12T04:09:23.244Z,3.50
2019-01-12T04:09:59.452Z,4.33
2019-01-12T04:10:36.436Z,2.53
2019-01-12T04:11:12.765Z,4.23
2019-01-12T04:11:49.123Z,3.30
2019-01-12T04:12:26.627Z,3.13
2019-01-12T04:13:03.274Z,2.40
2019-01-12T04:13:40.602Z,2.60
2019-01-12T04:14:17.305Z,3.17
2019-01-12T04:14:54.154Z,3.30
2019-01-12T04:15:30.756Z,3.40
2019-01-12T04:16:07.784Z,2.70
2019-01-12T04:16:44.907Z,3.10
2019-01-12T04:17:22.530Z,2.67
2019-01-12T04:17:59.183Z,3.30
2019-01-12T04:18:36.081Z,3.80
2019-01-12T04:19:12.753Z,3.27
2019-01-12T04:19:49.599Z,3.57
2019-01-12T04:20:26.590Z,2.90
2019-01-12T04:21:03.002Z,2.83
2019-01-12T04:21:39.647Z,3.53
2019-01-12T04:22:16.194Z,2.97
2019-01-12T04:22:52.537Z,3.47
2019-01-12T04:23:29.774Z,2.83
2019-01-12T04:24:06.155Z,3.07
2019-01-12T04:24:43.137Z,2.70
2019-01-12T04:25:20.037Z,2.47
2019-01-12T04:25:57.904Z,3.37
2019-01-12T04:26:34.993Z,2.30
2019-01-12T04:27:11.575Z,2.43
2019-01-12T04:27:47.876Z,3.70
2019-01-12T04:28:24.329Z,2.50
2019-01-12T04:29:00.652Z,4.10
2019-01-12T04:29:37.515Z,2.90
2019-01-12T04:30:16.544Z,3.40
2019-01-12T04:30:52.912Z,2.97
2019-01-12T04:31:29.880Z,2.93
2019-01-12T04:32:06.750Z,2.73
2019-01-12T04:32:43.147Z,2.63
2019-01-12T04:33:19.877Z,3.23
2019-01-12T04:33:56.983Z,3.60
2019-01-12T04:34:33.251Z,2.97
2019-01-12T04:35:10.172Z,3.20
2019-01-12T04:35:47.017Z,2.37
2019-01-12T04:36:23.329Z,3.60
2019-01-12T04:36:59.696Z,3.50
2019-01-12T04:37:36.492Z,2.67
2019-01-12T04:38:13.713Z,3.13
2019-01-12T04:38:50.629Z,3.73
2019-01-12T04:39:27.688Z,3.83
2019-01-12T04:40:04.112Z,3.83
2019-01-12T04:40:41.114Z,3.53
2019-01-12T04:41:18.173Z,3.03
2019-01-12T04:41:54.630Z,2.43
2019-01-12T04:42:31.314Z,3.40
2019-01-12T04:43:07.659Z,3.03
2019-01-12T04:43:44.858Z,2.43
2019-01-12T04:44:21.982Z,3.00
2019-01-12T04:44:59.059Z,3.23
2019-01-12T04:45:36.029Z,3.30
2019-01-12T04:46:13.034Z,3.33
2019-01-12T04:46:49.336Z,2.50
2019-01-12T04:47:25.869Z,2.97
2019-01-12T04:48:02.516Z,3.00
2019-01-12T04:48:39.514Z,2.80
2019-01-12T04:49:16.596Z,3.50
2019-01-12T04:49:53.188Z,2.90
2019-01-12T04:50:30.278Z,3.50
2019-01-12T04:51:07.155Z,3.00
2019-01-12T04:51:43.568Z,2.63
2019-01-12T04:52:20.363Z,2.20
2019-01-12T04:52:57.619Z,2.70
2019-01-12T04:53:33.933Z,3.03
2019-01-12T04:54:10.784Z,3.70
2019-01-12T04:54:47.311Z,3.47
2019-01-12T04:55:23.682Z,3.07
2019-01-12T04:55:59.977Z,5.03
2019-01-12T04:56:37.397Z,3.60
2019-01-12T04:57:13.790Z,2.87
2019-01-12T04:57:51.207Z,2.90
2019-01-12T04:58:28.299Z,2.97
2019-01-12T04:59:04.825Z,2.90
2019-01-12T04:59:41.271Z,3.10
2019-01-12T05:00:19.291Z,2.90
2019-01-12T05:00:55.730Z,2.90
2019-01-12T05:01:31.941Z,2.70
2019-01-12T05:02:08.715Z,2.80
2019-01-12T05:02:45.134Z,3.53
2019-01-12T05:03:22.134Z,2.40
2019-01-12T05:03:58.434Z,3.37
2019-01-12T05:04:35.370Z,2.60
2019-01-12T05:05:11.776Z,3.60
2019-01-12T05:05:48.204Z,3.93
2019-01-12T05:06:24.850Z,3.00
2019-01-12T05:07:01.414Z,2.57
2019-01-12T05:07:38.396Z,2.47
2019-01-12T05:08:14.827Z,3.13
2019-01-12T05:08:51.233Z,2.83
2019-01-12T05:09:27.532Z,3.57
2019-01-12T05:10:04.235Z,3.67
2019-01-12T05:10:40.762Z,3.40
2019-01-12T05:11:17.933Z,2.87
2019-01-12T05:11:54.522Z,3.03
2019-01-12T05:12:31.679Z,2.53
2019-01-12T05:13:08.002Z,2.80
2019-01-12T05:13:44.505Z,2.87
2019-01-12T05:14:20.831Z,2.80
2019-01-12T05:14:57.327Z,2.63
2019-01-12T05:15:34.326Z,2.93
2019-01-12T05:16:11.283Z,2.70
2019-01-12T05:16:48.214Z,3.10
2019-01-12T05:17:24.712Z,3.80
2019-01-12T05:18:01.509Z,3.40
2019-01-12T05:18:37.860Z,3.03
2019-01-12T05:19:14.573Z,3.00
2019-01-12T05:19:52.083Z,2.53
2019-01-12T05:20:29.041Z,3.00
2019-01-12T05:21:06.283Z,2.50
2019-01-12T05:21:43.033Z,3.33
2019-01-12T05:22:19.414Z,3.20
2019-01-12T05:22:56.213Z,3.03
2019-01-12T05:23:32.973Z,2.73
2019-01-12T05:24:10.163Z,2.87
2019-01-12T05:24:46.496Z,2.73
2019-01-12T05:25:23.220Z,3.13
2019-01-12T05:26:00.282Z,3.20
2019-01-12T05:26:37.334Z,2.77
2019-01-12T05:27:13.937Z,2.57
2019-01-12T05:27:51.035Z,2.37
2019-01-12T05:28:27.394Z,2.27
2019-01-12T05:29:04.426Z,3.30
2019-01-12T05:29:41.446Z,3.20
2019-01-12T05:30:26.548Z,2.87
2019-01-12T05:31:02.797Z,2.63
2019-01-12T05:31:39.881Z,2.60
2019-01-12T05:32:16.712Z,3.23
2019-01-12T05:32:53.377Z,2.73
2019-01-12T05:33:29.578Z,2.80
2019-01-12T05:34:06.350Z,3.10
2019-01-12T05:34:43.330Z,3.37
2019-01-12T05:35:20.514Z,2.43
2019-01-12T05:35:57.219Z,2.90
2019-01-12T05:36:34.299Z,2.87
2019-01-12T05:37:11.246Z,2.30
2019-01-12T05:37:47.953Z,3.37
2019-01-12T05:38:24.509Z,2.40
2019-01-12T05:39:02.029Z,2.60
2019-01-12T05:39:38.430Z,2.50
2019-01-12T05:40:15.345Z,3.00
2019-01-12T05:40:52.493Z,2.97
2019-01-12T05:41:28.817Z,3.70
2019-01-12T05:42:05.238Z,2.40
2019-01-12T05:42:42.436Z,3.37
2019-01-12T05:43:18.968Z,2.40
2019-01-12T05:43:55.991Z,2.73
2019-01-12T05:44:32.911Z,3.00
2019-01-12T05:45:09.598Z,2.13
2019-01-12T05:45:46.317Z,2.63
2019-01-12T05:46:22.648Z,2.80
2019-01-12T05:46:58.814Z,2.57
2019-01-12T05:47:35.727Z,2.70
2019-01-12T05:48:12.745Z,2.30
2019-01-12T05:48:48.986Z,2.80
2019-01-12T05:49:26.285Z,2.30
2019-01-12T05:50:03.364Z,2.60
2019-01-12T05:50:40.706Z,3.00
2019-01-12T05:51:17.629Z,3.13
2019-01-12T05:51:54.001Z,2.37
2019-01-12T05:52:31.097Z,2.57
2019-01-12T05:53:07.796Z,2.30
2019-01-12T05:53:44.730Z,3.50
2019-01-12T05:54:21.894Z,4.50
2019-01-12T05:54:58.117Z,3.50
2019-01-12T05:55:35.306Z,3.43
2019-01-12T05:56:12.329Z,3.10
2019-01-12T05:56:48.486Z,3.13
2019-01-12T05:57:26.250Z,2.53
2019-01-12T05:58:02.637Z,3.20
2019-01-12T05:58:40.047Z,3.00
2019-01-12T05:59:16.994Z,3.43
2019-01-12T05:59:54.002Z,3.00
2019-01-12T06:00:30.220Z,3.27
2019-01-12T06:01:07.148Z,3.00
2019-01-12T06:01:44.655Z,3.40
2019-01-12T06:02:21.017Z,3.57
2019-01-12T06:02:57.889Z,2.80
2019-01-12T06:03:34.976Z,3.13
2019-01-12T06:04:12.145Z,3.53
2019-01-12T06:04:48.519Z,2.80
2019-01-12T06:05:25.229Z,3.67
2019-01-12T06:06:01.638Z,3.80
2019-01-12T06:06:38.462Z,2.80
2019-01-12T06:07:15.244Z,2.93
2019-01-12T06:07:52.033Z,3.20
2019-01-12T06:08:28.490Z,3.13
2019-01-12T06:09:06.691Z,3.30
2019-01-12T06:09:43.472Z,3.07
2019-01-12T06:10:20.552Z,2.67
2019-01-12T06:10:57.321Z,2.47
2019-01-12T06:11:34.545Z,2.43
2019-01-12T06:12:10.977Z,2.87
2019-01-12T06:12:47.248Z,2.63
2019-01-12T06:13:24.523Z,2.67
2019-01-12T06:14:01.596Z,2.20
2019-01-12T06:14:38.018Z,2.33
2019-01-12T06:15:14.538Z,2.20
2019-01-12T06:15:52.039Z,3.07
2019-01-12T06:16:28.920Z,2.20
2019-01-12T06:17:05.745Z,3.20
2019-01-12T06:17:42.107Z,2.73
2019-01-12T06:18:18.858Z,2.03
2019-01-12T06:18:55.172Z,3.13
2019-01-12T06:19:31.522Z,2.03
2019-01-12T06:20:09.499Z,3.30
2019-01-12T06:20:46.660Z,2.07
2019-01-12T06:21:23.781Z,2.50
2019-01-12T06:22:00.179Z,2.23
2019-01-12T06:22:36.963Z,2.57
2019-01-12T06:23:13.035Z,2.67
2019-01-12T06:23:49.374Z,3.10
2019-01-12T06:24:26.649Z,2.70
2019-01-12T06:25:02.974Z,2.80
2019-01-12T06:25:39.447Z,2.70
2019-01-12T06:26:16.465Z,2.70
2019-01-12T06:26:53.388Z,2.30
2019-01-12T06:27:29.648Z,2.40
2019-01-12T06:28:05.934Z,3.03
2019-01-12T06:28:42.665Z,2.50
2019-01-12T06:29:19.529Z,2.77
2019-01-12T06:29:56.766Z,3.17
2019-01-12T06:30:33.591Z,2.30
2019-01-12T06:31:10.498Z,2.80
2019-01-12T06:31:47.451Z,3.30
2019-01-12T06:32:23.797Z,3.37
2019-01-12T06:33:00.605Z,2.73
2019-01-12T06:33:36.903Z,4.10
2019-01-12T06:34:13.239Z,3.83
2019-01-12T06:34:50.974Z,3.67
2019-01-12T06:35:28.204Z,3.30
2019-01-12T06:36:05.714Z,4.50
2019-01-12T06:36:42.059Z,4.10
2019-01-12T06:37:18.932Z,4.50
2019-01-12T06:37:55.203Z,3.47
2019-01-12T06:38:31.989Z,3.57
2019-01-12T06:39:10.912Z,5.13
2019-01-12T06:39:47.023Z,4.30
2019-01-12T06:40:23.145Z,4.70
2019-01-12T06:40:59.636Z,4.20
2019-01-12T06:41:35.956Z,4.63
2019-01-12T06:42:12.620Z,5.13
2019-01-12T06:42:49.606Z,4.80
2019-01-12T06:43:27.052Z,5.40
2019-01-12T06:44:03.435Z,4.07
2019-01-12T06:44:40.256Z,4.83
2019-01-12T06:45:17.744Z,5.23
2019-01-12T06:45:54.064Z,4.77
2019-01-12T06:46:30.771Z,4.97
2019-01-12T06:47:06.877Z,5.00
2019-01-12T06:47:43.920Z,5.27
2019-01-12T06:48:20.948Z,4.50
2019-01-12T06:48:58.055Z,4.60
2019-01-12T06:49:34.447Z,4.63
2019-01-12T06:50:12.033Z,4.80
2019-01-12T06:50:48.813Z,4.77
2019-01-12T06:51:25.189Z,4.97
2019-01-12T06:52:01.771Z,4.23
2019-01-12T06:52:38.585Z,5.47
2019-01-12T06:53:15.362Z,5.50
2019-01-12T06:53:52.427Z,4.60
2019-01-12T06:54:29.970Z,5.03
2019-01-12T06:55:07.225Z,5.40
2019-01-12T06:55:43.563Z,5.20
2019-01-12T06:56:20.850Z,4.93
2019-01-12T06:56:58.252Z,4.73
2019-01-12T06:57:34.493Z,5.60
2019-01-12T06:58:11.141Z,6.73
2019-01-12T06:58:48.350Z,4.50
2019-01-12T06:59:24.858Z,5.83
2019-01-12T07:00:01.969Z,4.77
2019-01-12T07:00:38.237Z,5.07
2019-01-12T07:01:15.192Z,5.90
2019-01-12T07:01:52.456Z,4.73
2019-01-12T07:02:29.642Z,6.03
2019-01-12T07:03:05.982Z,4.97
2019-01-12T07:03:42.592Z,5.30
2019-01-12T07:04:22.640Z,5.30
2019-01-12T07:04:59.068Z,5.00
2019-01-12T07:05:35.346Z,5.07
2019-01-12T07:06:12.334Z,5.97
2019-01-12T07:06:49.190Z,5.50
2019-01-12T07:07:26.012Z,4.57
2019-01-12T07:08:02.851Z,4.73
2019-01-12T07:08:39.827Z,5.27
2019-01-12T07:09:16.254Z,5.50
2019-01-12T07:09:52.763Z,5.13
2019-01-12T07:10:30.211Z,4.60
2019-01-12T07:11:06.746Z,5.07
2019-01-12T07:11:43.511Z,4.53
2019-01-12T07:12:20.410Z,3.90
2019-01-12T07:12:57.344Z,4.30
2019-01-12T07:13:34.158Z,4.80
2019-01-12T07:14:11.257Z,5.07
2019-01-12T07:14:48.616Z,4.33
2019-01-12T07:15:25.088Z,4.60
2019-01-12T07:16:02.074Z,4.67
2019-01-12T07:16:39.942Z,3.60
2019-01-12T07:17:16.193Z,4.37
2019-01-12T07:17:53.044Z,4.83
2019-01-12T07:18:30.003Z,4.97
2019-01-12T07:19:06.505Z,4.60
2019-01-12T07:19:42.857Z,4.50
2019-01-12T07:20:22.522Z,4.20
2019-01-12T07:20:59.568Z,4.03
2019-01-12T07:21:36.542Z,4.40
2019-01-12T07:22:13.205Z,3.80
2019-01-12T07:22:50.465Z,4.73
2019-01-12T07:23:27.647Z,5.47
2019-01-12T07:24:04.408Z,5.67
2019-01-12T07:24:41.384Z,4.40
2019-01-12T07:25:18.211Z,4.60
2019-01-12T07:25:54.866Z,3.70
2019-01-12T07:26:32.221Z,4.17
2019-01-12T07:27:09.290Z,4.53
2019-01-12T07:27:45.685Z,3.97
2019-01-12T07:28:21.819Z,3.97
2019-01-12T07:28:58.130Z,4.67
2019-01-12T07:29:34.782Z,4.80
2019-01-12T07:30:17.343Z,4.20
2019-01-12T07:30:55.639Z,4.03
2019-01-12T07:31:32.580Z,4.00
2019-01-12T07:32:09.028Z,4.87
2019-01-12T07:32:45.985Z,4.53
2019-01-12T07:33:23.962Z,5.00
2019-01-12T07:34:00.223Z,5.17
2019-01-12T07:34:37.490Z,5.43
2019-01-12T07:35:14.535Z,4.10
2019-01-12T07:35:51.961Z,4.40
2019-01-12T07:36:28.317Z,5.27
2019-01-12T07:37:04.787Z,5.33
2019-01-12T07:37:42.148Z,5.13
2019-01-12T07:38:18.327Z,4.60
2019-01-12T07:38:55.007Z,4.03
2019-01-12T07:39:32.126Z,4.70
2019-01-12T07:40:08.498Z,4.73
2019-01-12T07:40:45.872Z,5.10
2019-01-12T07:41:23.289Z,5.10
2019-01-12T07:42:00.912Z,4.93
2019-01-12T07:42:37.257Z,4.50
2019-01-12T07:43:13.631Z,4.73
2019-01-12T07:43:50.262Z,4.60
2019-01-12T07:44:26.802Z,4.90
2019-01-12T07:45:03.915Z,4.30
2019-01-12T07:45:40.983Z,4.30
2019-01-12T07:46:17.341Z,4.93
2019-01-12T07:46:54.565Z,4.43
2019-01-12T07:47:31.882Z,4.57
2019-01-12T07:48:08.353Z,4.80
2019-01-12T07:48:44.647Z,4.00
2019-01-12T07:49:20.821Z,4.63
2019-01-12T07:49:57.167Z,3.80
2019-01-12T07:50:34.192Z,4.40
2019-01-12T07:51:10.756Z,4.13
2019-01-12T07:51:47.633Z,4.30
2019-01-12T07:52:24.048Z,4.30
2019-01-12T07:53:02.188Z,4.83
2019-01-12T07:53:38.499Z,4.80
2019-01-12T07:54:14.872Z,5.00
2019-01-12T07:54:51.293Z,4.50
2019-01-12T07:55:27.952Z,4.43
2019-01-12T07:56:05.022Z,4.23
2019-01-12T07:56:41.889Z,5.00
2019-01-12T07:57:18.833Z,4.23
2019-01-12T07:57:54.992Z,4.13
2019-01-12T07:58:32.180Z,4.50
2019-01-12T07:59:09.550Z,4.13
2019-01-12T07:59:46.814Z,4.33
2019-01-12T08:00:26.242Z,5.10
2019-01-12T08:01:02.563Z,4.43
2019-01-12T08:01:39.028Z,4.40
2019-01-12T08:02:15.212Z,5.10
2019-01-12T08:02:52.442Z,6.20
2019-01-12T08:03:28.760Z,4.10
2019-01-12T08:04:05.945Z,5.17
2019-01-12T08:04:43.070Z,5.40
2019-01-12T08:05:19.770Z,4.83
2019-01-12T08:05:56.541Z,5.30
2019-01-12T08:06:33.220Z,3.57
2019-01-12T08:07:09.509Z,4.10
2019-01-12T08:07:46.269Z,4.20
2019-01-12T08:08:23.138Z,4.30
2019-01-12T08:08:59.980Z,4.43
2019-01-12T08:09:36.777Z,4.77
2019-01-12T08:10:15.716Z,4.33
2019-01-12T08:10:52.937Z,3.90